Time;durP1;ratioP1;P1;durP2;ratioP2;P2;SDS_P1;SDS_P2;PMS_P1;PMS_P2;Temp;Humidity;BMP_temperature;BMP_pressure;BME280_temperature;BME280_humidity;BME280_pressure;Samples;Min_cycle;Max_cycle;Signal;HPM_P1;HPM_P2
2022/12/04 00:01:49;;;;;;;40.05;19.92;;;0.80;99.90;;;;;;5093826;28;20389;-68
2022/12/04 00:04:14;;;;;;;47.88;22.98;;;0.80;99.90;;;;;;5075790;28;20089;-69
2022/12/04 00:06:40;;;;;;;50.83;24.60;;;0.80;99.90;;;;;;5102840;28;20036;-69
2022/12/04 00:09:07;;;;;;;44.80;21.75;;;0.80;99.90;;;;;;5093148;28;20039;-69
2022/12/04 00:11:34;;;;;;;51.95;23.20;;;0.80;99.90;;;;;;5093390;28;20067;-69
2022/12/04 00:14:00;;;;;;;48.97;23.05;;;0.80;99.90;;;;;;5093432;28;20043;-69
2022/12/04 00:16:29;;;;;;;45.85;21.90;;;0.80;99.90;;;;;;5084739;28;20044;-69
2022/12/04 00:18:55;;;;;;;46.75;22.35;;;0.80;99.90;;;;;;5095508;28;20047;-69
2022/12/04 00:21:23;;;;;;;49.65;22.70;;;0.80;99.90;;;;;;5081409;28;20036;-69
2022/12/04 00:23:49;;;;;;;46.90;24.30;;;0.80;99.90;;;;;;5086989;28;20044;-69
2022/12/04 00:26:18;;;;;;;43.15;21.50;;;0.80;99.90;;;;;;5093341;28;20040;-69
2022/12/04 00:28:44;;;;;;;54.53;24.25;;;0.90;99.90;;;;;;5084835;28;20055;-68
2022/12/04 00:31:17;;;;;;;51.50;26.30;;;0.90;99.90;;;;;;5113781;28;20085;-70
2022/12/04 00:33:43;;;;;;;53.03;26.00;;;0.90;99.90;;;;;;5095708;28;20102;-68
2022/12/04 00:36:11;;;;;;;50.08;22.63;;;0.90;99.90;;;;;;5113576;28;20396;-69
2022/12/04 00:38:38;;;;;;;46.47;23.67;;;0.90;99.90;;;;;;5094826;28;20392;-69
2022/12/04 00:41:07;;;;;;;46.85;22.27;;;0.90;99.90;;;;;;5095310;28;20039;-69
2022/12/04 00:43:33;;;;;;;51.03;26.27;;;0.90;99.90;;;;;;5094142;28;20475;-69
2022/12/04 00:45:58;;;;;;;46.08;22.75;;;0.90;99.90;;;;;;5076067;28;20046;-70
2022/12/04 00:48:25;;;;;;;50.15;24.70;;;0.90;99.90;;;;;;5092615;28;20043;-69
2022/12/04 00:50:50;;;;;;;49.92;25.00;;;0.90;99.90;;;;;;5074397;28;20296;-69
2022/12/04 00:53:16;;;;;;;56.55;25.98;;;0.90;99.90;;;;;;5110043;28;20091;-69
2022/12/04 00:55:43;;;;;;;54.67;23.80;;;0.90;99.90;;;;;;5110653;28;20409;-69
2022/12/04 00:58:09;;;;;;;49.05;22.83;;;0.90;99.90;;;;;;5092479;28;20039;-69
2022/12/04 01:00:40;;;;;;;52.70;23.60;;;0.90;99.90;;;;;;5077356;28;20412;-69
2022/12/04 01:03:06;;;;;;;;;;;1.00;99.90;;;;;;5112756;28;20402;-69
2022/12/04 01:05:36;;;;;;;51.67;23.27;;;0.90;99.90;;;;;;5093560;28;19920;-69
2022/12/04 01:08:02;;;;;;;54.17;24.13;;;1.00;99.90;;;;;;5077351;28;20040;-69
2022/12/04 01:10:28;;;;;;;47.92;23.60;;;1.00;99.90;;;;;;5112264;28;20452;-69
2022/12/04 01:12:53;;;;;;;51.10;22.73;;;0.90;99.90;;;;;;5112180;28;20233;-69
2022/12/04 01:15:19;;;;;;;47.47;21.65;;;0.90;99.90;;;;;;5093833;28;20101;-69
2022/12/04 01:17:45;;;;;;;52.40;24.20;;;0.90;99.90;;;;;;5112044;28;20099;-69
2022/12/04 01:20:13;;;;;;;48.42;23.63;;;1.00;99.90;;;;;;5093409;28;20187;-69
2022/12/04 01:22:38;;;;;;;52.85;26.08;;;0.90;99.90;;;;;;5093451;28;20039;-69
2022/12/04 01:25:05;;;;;;;50.47;22.80;;;1.00;99.90;;;;;;5093480;28;20039;-69
2022/12/04 01:27:31;;;;;;;52.85;23.58;;;1.00;99.90;;;;;;5111928;28;20054;-69
2022/12/04 01:29:57;;;;;;;49.50;24.20;;;0.90;99.90;;;;;;5076566;28;20079;-69
2022/12/04 01:32:23;;;;;;;54.63;24.35;;;1.00;99.90;;;;;;5093331;28;20075;-69
2022/12/04 01:34:48;;;;;;;50.22;24.25;;;1.00;99.90;;;;;;5111036;28;20040;-70
2022/12/04 01:37:14;;;;;;;49.38;22.65;;;1.00;99.90;;;;;;5093192;28;20040;-69
2022/12/04 01:39:40;;;;;;;52.78;24.23;;;1.00;99.90;;;;;;5093282;28;20031;-69
2022/12/04 01:42:08;;;;;;;58.88;25.77;;;1.00;99.90;;;;;;5093341;28;20050;-69
2022/12/04 01:44:34;;;;;;;53.33;24.90;;;1.00;99.90;;;;;;5093093;28;20035;-69
2022/12/04 01:47:00;;;;;;;46.50;24.90;;;1.00;99.90;;;;;;5111368;28;20099;-69
2022/12/04 01:49:38;;;;;;;46.55;22.65;;;1.00;99.90;;;;;;5092933;28;20100;-70
2022/12/04 01:52:14;;;;;;;45.92;22.60;;;1.00;99.90;;;;;;5111285;28;20354;-69
2022/12/04 01:54:46;;;;;;;45.97;23.67;;;1.00;99.90;;;;;;5111170;28;20082;-69
2022/12/04 01:57:14;;;;;;;48.83;20.95;;;1.00;99.90;;;;;;5111247;28;20039;-70
2022/12/04 01:59:55;;;;;;;48.15;24.38;;;1.00;99.90;;;;;;5092908;28;20039;-69
2022/12/04 02:02:34;;;;;;;49.10;22.42;;;1.00;99.90;;;;;;5092472;28;20040;-69
2022/12/04 02:05:03;;;;;;;37.65;16.73;;;1.00;99.90;;;;;;5110663;28;20043;-69
2022/12/04 02:07:28;;;;;;;52.15;23.27;;;1.00;99.90;;;;;;5092683;28;20097;-69
2022/12/04 02:09:54;;;;;;;49.70;22.63;;;0.90;99.90;;;;;;5092668;28;20047;-70
2022/12/04 02:12:34;;;;;;;54.10;25.23;;;1.00;99.90;;;;;;5092620;28;20074;-69
2022/12/04 02:15:18;;;;;;;56.83;24.20;;;0.90;99.90;;;;;;5110942;28;20043;-69
2022/12/04 02:17:49;;;;;;;54.50;25.50;;;0.90;99.90;;;;;;5092716;28;20035;-69
2022/12/04 02:20:24;;;;;;;46.88;22.65;;;1.00;99.90;;;;;;5092219;28;20035;-69
2022/12/04 02:23:11;;;;;;;51.55;24.50;;;1.00;99.90;;;;;;5110621;28;20515;-69
2022/12/04 02:26:06;;;;;;;55.08;24.92;;;1.00;99.90;;;;;;5110615;28;20165;-69
2022/12/04 02:28:48;;;;;;;48.22;24.00;;;0.90;99.90;;;;;;5110764;28;20130;-69
2022/12/04 02:31:32;;;;;;;53.72;25.50;;;1.00;99.90;;;;;;5092764;28;20399;-69
2022/12/04 02:34:01;;;;;;;54.88;26.40;;;0.90;99.90;;;;;;5110253;28;20070;-69
2022/12/04 02:36:40;;;;;;;56.15;26.15;;;0.90;99.90;;;;;;5092102;28;20047;-69
2022/12/04 02:39:17;;;;;;;58.00;26.52;;;0.90;99.90;;;;;;5111031;28;20399;-69
2022/12/04 02:42:14;;;;;;;50.75;23.60;;;0.90;99.90;;;;;;5111260;28;20085;-69
2022/12/04 02:44:56;;;;;;;51.20;25.17;;;0.90;99.90;;;;;;5076185;28;20130;-70
2022/12/04 02:47:24;;;;;;;44.85;23.02;;;0.90;99.90;;;;;;5110901;28;20104;-69
2022/12/04 02:49:59;;;;;;;49.28;24.35;;;0.90;99.90;;;;;;5111167;28;20035;-69
2022/12/04 02:52:36;;;;;;;51.75;23.88;;;0.90;99.90;;;;;;5089303;28;20092;-70
2022/12/04 02:55:06;;;;;;;51.95;24.60;;;0.90;99.90;;;;;;5089769;28;20044;-69
2022/12/04 02:57:34;;;;;;;;;;;0.90;99.90;;;;;;5089933;28;20042;-69
2022/12/04 03:00:07;;;;;;;49.95;24.65;;;0.90;99.90;;;;;;5090692;28;19915;-69
2022/12/04 03:02:42;;;;;;;53.00;24.95;;;0.80;99.90;;;;;;5089630;28;20063;-69
2022/12/04 03:05:17;;;;;;;54.72;26.25;;;0.80;99.90;;;;;;5089970;28;20507;-69
2022/12/04 03:07:53;;;;;;;56.70;25.92;;;0.90;99.90;;;;;;5072338;28;20437;-69
2022/12/04 03:10:35;;;;;;;56.65;29.23;;;0.90;99.90;;;;;;5089445;28;20044;-70
2022/12/04 03:13:19;;;;;;;50.88;26.10;;;0.80;99.90;;;;;;5089888;28;20118;-69
2022/12/04 03:16:28;;;;;;;49.72;24.58;;;0.90;99.90;;;;;;5072335;28;20040;-69
2022/12/04 03:19:07;;;;;;;54.38;27.95;;;0.80;99.90;;;;;;5071805;28;20180;-69
2022/12/04 03:21:37;;;;;;;57.95;27.63;;;0.90;99.90;;;;;;5090307;28;20540;-70
2022/12/04 03:24:16;;;;;;;51.80;22.17;;;0.80;99.90;;;;;;5090512;28;20078;-69
2022/12/04 03:26:45;;;;;;;52.72;27.83;;;0.80;99.90;;;;;;5089241;28;20081;-69
2022/12/04 03:29:18;;;;;;;41.17;20.57;;;0.80;99.90;;;;;;5090447;28;20044;-69
2022/12/04 03:31:44;;;;;;;55.22;27.77;;;0.80;99.90;;;;;;5088820;28;20388;-69
2022/12/04 03:34:12;;;;;;;49.80;23.60;;;0.80;99.90;;;;;;5090425;28;20047;-70
2022/12/04 03:36:48;;;;;;;54.75;26.15;;;0.80;99.90;;;;;;5090243;28;20040;-69
2022/12/04 03:39:21;;;;;;;52.42;25.90;;;0.80;99.90;;;;;;5088940;28;20073;-69
2022/12/04 03:41:59;;;;;;;50.58;25.02;;;0.80;99.90;;;;;;5089218;28;20388;-69
2022/12/04 03:44:45;;;;;;;52.88;26.10;;;0.80;99.90;;;;;;5088819;28;20044;-69
2022/12/04 03:47:17;;;;;;;53.75;24.75;;;0.80;99.90;;;;;;5088513;28;20037;-69
2022/12/04 03:50:05;;;;;;;54.30;26.55;;;0.80;99.90;;;;;;5089158;28;20072;-69
2022/12/04 03:52:55;;;;;;;53.95;25.55;;;0.70;99.90;;;;;;5088925;28;20056;-69
2022/12/04 03:55:32;;;;;;;40.15;19.77;;;0.80;99.90;;;;;;5088794;28;20696;-69
2022/12/04 03:58:04;;;;;;;53.15;27.95;;;0.80;99.90;;;;;;5089238;28;20054;-69
2022/12/04 04:00:31;;;;;;;52.30;26.10;;;0.80;99.90;;;;;;5071434;28;20122;-69
2022/12/04 04:03:09;;;;;;;56.88;27.35;;;0.80;99.90;;;;;;5088998;28;20122;-69
2022/12/04 04:05:40;;;;;;;55.95;26.77;;;0.80;99.90;;;;;;5090300;28;20068;-69
2022/12/04 04:08:25;;;;;;;52.53;25.88;;;0.80;99.90;;;;;;5089978;28;20036;-69
2022/12/04 04:10:59;;;;;;;50.85;26.30;;;0.80;99.90;;;;;;5089110;28;20080;-70
2022/12/04 04:24:44;;;;;;;54.65;26.02;;;0.70;99.90;;;;;;5089466;28;20044;-69
2022/12/04 04:27:10;;;;;;;61.50;28.80;;;0.70;99.90;;;;;;5075480;28;20048;-69
2022/12/04 04:29:36;;;;;;;55.70;26.70;;;0.70;99.90;;;;;;5091689;28;20044;-69
2022/12/04 04:32:17;;;;;;;57.92;29.42;;;0.70;99.90;;;;;;5092115;28;20100;-69
2022/12/04 04:34:43;;;;;;;53.90;26.48;;;0.70;99.90;;;;;;5075212;28;20044;-69
2022/12/04 04:37:39;;;;;;;53.17;26.52;;;0.70;99.90;;;;;;5092084;28;20040;-69
2022/12/04 04:40:17;;;;;;;56.13;27.75;;;0.70;99.90;;;;;;5093341;28;20472;-69
2022/12/04 04:43:15;;;;;;;53.65;26.80;;;0.70;99.90;;;;;;5093142;28;20691;-69
2022/12/04 04:45:48;;;;;;;55.65;26.75;;;0.70;99.90;;;;;;5079705;28;20044;-70
2022/12/04 04:48:26;;;;;;;54.30;27.40;;;0.70;99.90;;;;;;5092059;28;20054;-69
2022/12/04 04:50:53;;;;;;;56.00;25.67;;;0.70;99.90;;;;;;5093087;28;20050;-69
2022/12/04 04:53:22;;;;;;;59.03;27.95;;;0.70;99.90;;;;;;5110111;28;20151;-69
2022/12/04 04:55:49;;;;;;;57.73;28.80;;;0.70;99.90;;;;;;5094684;28;20097;-69
2022/12/04 04:58:17;;;;;;;55.58;26.52;;;0.70;99.90;;;;;;5077081;28;20273;-69
2022/12/04 05:00:48;;;;;;;55.50;28.33;;;0.70;99.90;;;;;;5094433;28;20122;-68
2022/12/04 05:03:14;;;;;;;50.45;25.27;;;0.70;99.90;;;;;;5094622;28;20042;-69
2022/12/04 05:05:40;;;;;;;59.28;30.33;;;0.70;99.90;;;;;;5093845;28;20048;-69
2022/12/04 05:08:06;;;;;;;59.28;27.92;;;0.70;99.90;;;;;;5076919;28;20039;-69
2022/12/04 05:10:31;;;;;;;54.35;23.63;;;0.70;99.90;;;;;;5094217;28;20047;-70
2022/12/04 05:12:57;;;;;;;59.40;29.15;;;0.70;99.90;;;;;;5093183;28;20044;-69
2022/12/04 05:15:23;;;;;;;57.22;26.80;;;0.70;99.90;;;;;;5111970;28;20101;-69
2022/12/04 05:17:48;;;;;;;58.00;28.10;;;0.60;99.90;;;;;;5094656;28;20083;-68
2022/12/04 05:20:14;;;;;;;58.28;27.35;;;0.70;99.90;;;;;;5111800;28;20490;-69
2022/12/04 05:22:40;;;;;;;56.72;28.00;;;0.70;99.90;;;;;;5094115;28;20499;-68
2022/12/04 05:25:06;;;;;;;60.72;27.95;;;0.70;99.90;;;;;;5076992;28;20484;-68
2022/12/04 05:27:32;;;;;;;57.20;27.80;;;0.70;99.90;;;;;;5111506;28;20069;-68
2022/12/04 05:29:58;;;;;;;66.22;28.23;;;0.70;99.90;;;;;;5093386;28;20488;-69
2022/12/04 05:32:25;;;;;;;60.83;28.05;;;0.70;99.90;;;;;;5093404;28;20127;-69
2022/12/04 05:34:52;;;;;;;61.33;27.25;;;0.70;99.90;;;;;;5111457;28;20031;-68
2022/12/04 05:37:19;;;;;;;59.88;29.42;;;0.60;99.90;;;;;;5111236;28;20040;-68
2022/12/04 05:39:45;;;;;;;64.72;30.83;;;0.70;99.90;;;;;;5111542;28;20028;-68
2022/12/04 05:42:12;;;;;;;61.22;29.00;;;0.60;99.90;;;;;;5092764;28;20496;-68
2022/12/04 05:44:38;;;;;;;60.45;32.15;;;0.70;99.90;;;;;;5111531;28;20035;-68
2022/12/04 05:47:04;;;;;;;61.90;29.50;;;0.60;99.90;;;;;;5093045;28;20474;-68
2022/12/04 05:49:34;;;;;;;54.55;28.20;;;0.60;99.90;;;;;;5111270;28;20126;-68
2022/12/04 05:52:03;;;;;;;62.97;29.70;;;0.60;99.90;;;;;;5110993;28;20056;-68
2022/12/04 05:54:29;;;;;;;60.60;29.80;;;0.60;99.90;;;;;;5111376;28;20040;-68
2022/12/04 05:56:55;;;;;;;64.63;30.30;;;0.60;99.90;;;;;;5110722;28;20637;-69
2022/12/04 05:59:21;;;;;;;60.63;30.38;;;0.60;99.90;;;;;;5111414;28;20042;-69
2022/12/04 06:01:46;;;;;;;57.38;28.55;;;0.60;99.90;;;;;;5110993;28;20044;-69
2022/12/04 06:04:12;;;;;;;60.88;28.60;;;0.60;99.90;;;;;;5076580;28;20082;-67
2022/12/04 06:06:38;;;;;;;55.13;27.20;;;0.60;99.90;;;;;;5094335;28;20548;-68
2022/12/04 06:09:06;;;;;;;56.17;26.13;;;0.60;99.90;;;;;;5094358;28;20559;-68
2022/12/04 06:11:36;;;;;;;60.88;29.08;;;0.60;99.90;;;;;;5092720;28;20043;-69
2022/12/04 06:14:04;;;;;;;55.03;28.13;;;0.60;99.90;;;;;;5110902;28;20058;-69
2022/12/04 06:16:37;;;;;;;49.03;25.88;;;0.60;99.90;;;;;;5092452;28;20043;-69
2022/12/04 06:19:05;;;;;;;59.53;29.77;;;0.60;99.90;;;;;;5110895;28;20039;-69
2022/12/04 06:21:33;;;;;;;54.47;26.42;;;0.60;99.90;;;;;;5092682;28;20058;-69
2022/12/04 06:23:59;;;;;;;55.90;28.88;;;0.60;99.90;;;;;;5110799;28;20036;-69
2022/12/04 06:26:26;;;;;;;58.05;29.08;;;0.60;99.90;;;;;;5091973;28;20047;-69
2022/12/04 06:28:53;;;;;;;55.22;25.92;;;0.60;99.90;;;;;;5092248;28;20048;-68
2022/12/04 06:31:19;;;;;;;61.00;29.75;;;0.60;99.90;;;;;;5112178;28;20043;-67
2022/12/04 06:33:45;;;;;;;58.88;31.73;;;0.60;99.90;;;;;;5111806;28;20055;-68
2022/12/04 06:36:14;;;;;;;55.42;28.25;;;0.60;99.90;;;;;;5093152;28;20047;-67
2022/12/04 06:38:41;;;;;;;53.65;27.17;;;0.60;99.90;;;;;;5076562;28;20122;-67
2022/12/04 06:41:09;;;;;;;59.97;29.48;;;0.60;99.90;;;;;;5111007;28;20095;-68
2022/12/04 06:43:35;;;;;;;57.13;27.58;;;0.60;99.90;;;;;;5092790;28;20119;-69
2022/12/04 06:46:07;;;;;;;52.78;25.25;;;0.70;99.90;;;;;;5092630;28;20055;-68
2022/12/04 06:48:32;;;;;;;60.17;28.27;;;0.70;99.90;;;;;;5091999;28;20039;-68
2022/12/04 06:51:04;;;;;;;54.90;28.77;;;0.60;99.90;;;;;;5075324;28;20043;-67
2022/12/04 06:53:31;;;;;;;57.35;28.58;;;0.60;99.90;;;;;;5110050;28;20062;-67
2022/12/04 06:55:58;;;;;;;56.75;28.27;;;0.60;99.90;;;;;;5092486;28;20123;-68
2022/12/04 06:58:25;;;;;;;53.13;26.85;;;0.60;99.90;;;;;;5110996;28;20044;-69
2022/12/04 07:00:51;;;;;;;49.35;26.00;;;0.60;99.90;;;;;;5092214;28;20373;-68
2022/12/04 07:03:17;;;;;;;56.67;27.15;;;0.60;99.90;;;;;;5075592;28;20048;-68
2022/12/04 07:05:43;;;;;;;51.88;28.42;;;0.60;99.90;;;;;;5110499;28;20046;-69
2022/12/04 07:08:09;;;;;;;59.10;29.30;;;0.60;99.90;;;;;;5074946;28;20407;-69
2022/12/04 07:10:35;;;;;;;58.03;27.75;;;0.60;99.90;;;;;;5092602;28;20388;-68
2022/12/04 07:13:02;;;;;;;53.83;27.00;;;0.60;99.90;;;;;;5110480;28;20039;-68
2022/12/04 07:15:28;;;;;;;58.40;28.05;;;0.60;99.90;;;;;;5091850;28;20040;-68
2022/12/04 07:17:54;;;;;;;60.67;30.23;;;0.60;99.90;;;;;;5092309;28;20328;-68
2022/12/04 07:20:20;;;;;;;57.38;27.70;;;0.60;99.90;;;;;;5111012;28;20039;-67
2022/12/04 07:22:46;;;;;;;52.15;27.05;;;0.60;99.90;;;;;;5110722;28;20036;-69
2022/12/04 07:25:12;;;;;;;53.30;27.00;;;0.60;99.90;;;;;;5093026;28;20051;-69
2022/12/04 07:27:37;;;;;;;57.97;29.92;;;0.60;99.90;;;;;;5111492;28;20063;-69
2022/12/04 07:30:07;;;;;;;56.40;27.05;;;0.60;99.90;;;;;;5092877;28;20043;-68
2022/12/04 07:32:33;;;;;;;52.05;26.77;;;0.60;99.90;;;;;;5111340;28;20511;-69
2022/12/04 07:34:58;;;;;;;61.20;30.05;;;0.60;99.90;;;;;;5092935;28;20101;-68
2022/12/04 07:37:24;;;;;;;54.83;27.10;;;0.60;99.90;;;;;;5110723;28;20039;-68
2022/12/04 07:39:51;;;;;;;57.50;27.00;;;0.70;99.90;;;;;;5092689;28;20131;-68
2022/12/04 07:42:17;;;;;;;57.95;28.88;;;0.60;99.90;;;;;;5075803;28;20040;-68
2022/12/04 07:44:43;;;;;;;56.78;27.75;;;0.70;99.90;;;;;;5092735;28;20138;-68
2022/12/04 07:47:09;;;;;;;54.70;26.90;;;0.60;99.90;;;;;;5110491;28;20465;-68
2022/12/04 07:49:35;;;;;;;57.90;29.02;;;0.60;99.90;;;;;;5092757;28;20050;-68
2022/12/04 07:52:00;;;;;;;54.95;28.20;;;0.70;99.90;;;;;;5110142;28;20407;-69
2022/12/04 07:54:26;;;;;;;76.43;36.97;;;0.70;99.90;;;;;;5110764;28;20043;-69
2022/12/04 07:56:52;;;;;;;67.47;32.95;;;0.70;99.90;;;;;;5109824;28;20430;-68
2022/12/04 07:59:18;;;;;;;60.78;30.10;;;0.70;99.90;;;;;;5093191;28;20092;-69
2022/12/04 08:01:43;;;;;;;57.83;30.40;;;0.70;99.90;;;;;;5079993;28;20046;-68
2022/12/04 08:04:10;;;;;;;91.78;45.13;;;0.70;99.90;;;;;;5115518;28;20047;-68
2022/12/04 08:06:36;;;;;;;62.85;31.85;;;0.70;99.90;;;;;;5114954;28;20035;-69
2022/12/04 08:09:03;;;;;;;66.93;34.08;;;0.70;99.90;;;;;;5097127;28;20036;-69
2022/12/04 08:11:29;;;;;;;88.72;45.75;;;0.70;99.90;;;;;;5115041;28;20049;-69
2022/12/04 08:13:57;;;;;;;59.85;29.67;;;0.60;99.90;;;;;;5097299;28;20040;-68
2022/12/04 08:16:24;;;;;;;79.25;37.83;;;0.60;99.90;;;;;;5114758;28;20075;-68
2022/12/04 08:18:50;;;;;;;70.25;33.90;;;0.70;99.90;;;;;;5096353;28;20040;-69
2022/12/04 08:21:20;;;;;;;60.58;29.02;;;0.60;99.90;;;;;;5095391;28;20503;-68
2022/12/04 08:23:48;;;;;;;62.03;30.42;;;0.60;99.90;;;;;;5095872;28;20038;-69
2022/12/04 08:26:14;;;;;;;58.75;28.30;;;0.70;99.90;;;;;;5114210;28;20039;-69
2022/12/04 08:28:40;;;;;;;61.47;30.65;;;0.70;99.90;;;;;;5095903;28;20526;-69
2022/12/04 08:31:10;;;;;;;60.85;31.27;;;0.70;99.90;;;;;;5096050;28;20043;-68
2022/12/04 08:33:36;;;;;;;57.75;28.05;;;0.70;99.90;;;;;;5113936;28;20488;-68
2022/12/04 08:36:06;;;;;;;82.55;38.40;;;0.70;99.90;;;;;;5113287;28;20044;-69
2022/12/04 08:38:31;;;;;;;59.90;30.73;;;0.70;99.90;;;;;;5114110;28;20050;-69
2022/12/04 08:41:02;;;;;;;56.88;28.23;;;0.70;99.90;;;;;;5095654;28;20420;-69
2022/12/04 08:43:28;;;;;;;64.30;30.08;;;0.70;99.90;;;;;;5095190;28;20039;-69
2022/12/04 08:45:58;;;;;;;61.17;29.60;;;0.70;99.90;;;;;;5113062;28;20036;-69
2022/12/04 08:48:25;;;;;;;70.13;31.00;;;0.70;99.90;;;;;;5112687;28;20035;-68
2022/12/04 08:50:51;;;;;;;62.67;30.02;;;0.70;99.90;;;;;;5111995;28;20043;-68
2022/12/04 08:53:17;;;;;;;63.25;31.55;;;0.70;99.90;;;;;;5090703;28;20052;-69
2022/12/04 08:55:43;;;;;;;59.28;29.45;;;0.70;99.90;;;;;;5090824;28;20071;-69
2022/12/04 08:58:09;;;;;;;61.65;30.13;;;0.80;99.90;;;;;;5090636;28;20472;-69
2022/12/04 09:00:35;;;;;;;60.58;31.02;;;0.80;99.90;;;;;;5090639;28;20127;-69
2022/12/04 09:03:01;;;;;;;61.80;29.13;;;0.80;99.90;;;;;;5090857;28;20036;-69
2022/12/04 09:05:28;;;;;;;61.15;27.98;;;0.80;99.90;;;;;;5073298;28;20439;-68
2022/12/04 09:07:53;;;;;;;59.78;29.67;;;0.80;99.90;;;;;;5090901;28;20044;-69
2022/12/04 09:10:19;;;;;;;56.53;28.38;;;0.80;99.90;;;;;;5090657;28;20437;-70
2022/12/04 09:12:45;;;;;;;61.90;29.40;;;0.80;99.90;;;;;;5090685;28;20111;-69
2022/12/04 09:15:11;;;;;;;61.80;31.52;;;0.80;99.90;;;;;;5091572;28;20488;-69
2022/12/04 09:17:37;;;;;;;57.95;27.25;;;0.80;99.90;;;;;;5091631;28;20058;-67
2022/12/04 09:20:05;;;;;;;61.90;29.15;;;0.80;99.90;;;;;;5091366;28;20399;-72
2022/12/04 09:22:33;;;;;;;62.15;29.38;;;0.80;99.90;;;;;;5091494;28;20040;-72
2022/12/04 09:25:00;;;;;;;73.20;35.03;;;0.90;99.90;;;;;;5072980;28;20036;-72
2022/12/04 09:27:26;;;;;;;66.63;32.95;;;0.90;99.90;;;;;;5071103;28;20049;-72
2022/12/04 09:29:52;;;;;;;73.10;36.20;;;0.90;99.90;;;;;;5071323;28;20708;-71
2022/12/04 09:32:17;;;;;;;70.65;36.70;;;0.90;99.90;;;;;;5071023;28;20037;-72
2022/12/04 09:34:45;;;;;;;59.50;30.45;;;0.90;99.90;;;;;;5069593;28;20102;-72
2022/12/04 09:37:11;;;;;;;62.17;30.50;;;0.90;99.90;;;;;;5072237;28;20530;-71
2022/12/04 09:39:37;;;;;;;78.88;37.72;;;1.00;99.90;;;;;;5070237;28;20037;-72
2022/12/04 09:42:08;;;;;;;70.00;31.98;;;1.00;99.90;;;;;;5070270;28;20040;-71
2022/12/04 09:44:40;;;;;;;63.83;32.20;;;0.90;99.90;;;;;;5071527;28;20469;-71
2022/12/04 09:47:35;;;;;;;61.20;27.85;;;1.00;99.90;;;;;;5078736;28;20040;-72
2022/12/04 09:50:10;;;;;;;57.95;28.75;;;1.00;99.90;;;;;;5071533;28;20107;-71
2022/12/04 09:52:55;;;;;;;62.70;29.85;;;1.00;99.90;;;;;;5054036;28;20055;-72
2022/12/04 09:55:32;;;;;;;63.47;31.70;;;1.00;99.90;;;;;;5075040;28;20080;-72
2022/12/04 09:58:02;;;;;;;64.40;33.90;;;1.00;99.90;;;;;;5082122;28;20039;-71
2022/12/04 10:00:29;;;;;;;62.45;33.38;;;1.10;99.90;;;;;;5083116;28;20036;-71
2022/12/04 10:03:00;;;;;;;58.50;30.40;;;1.10;99.90;;;;;;5073000;28;20126;-72
2022/12/04 10:06:08;;;;;;;64.05;31.48;;;1.10;99.90;;;;;;5080989;28;20044;-70
2022/12/04 10:08:40;;;;;;;58.08;30.23;;;1.20;99.90;;;;;;5087135;28;20052;-73
2022/12/04 10:11:24;;;;;;;62.70;27.95;;;1.20;99.90;;;;;;5088632;28;20115;-73
2022/12/04 10:14:07;;;;;;;50.92;23.90;;;1.20;99.90;;;;;;5054233;28;20436;-73
2022/12/04 10:16:33;;;;;;;51.47;23.73;;;1.20;99.90;;;;;;5082196;28;20036;-73
2022/12/04 10:19:17;;;;;;;58.67;30.92;;;1.20;99.90;;;;;;5072828;28;20037;-73
2022/12/04 10:21:43;;;;;;;61.25;28.00;;;1.20;99.90;;;;;;5080834;28;20488;-73
2022/12/04 10:24:47;;;;;;;55.47;27.88;;;1.30;99.90;;;;;;5058290;28;20044;-73
2022/12/04 10:27:36;;;;;;;48.75;25.17;;;1.30;99.90;;;;;;5074064;28;20119;-72
2022/12/04 10:30:15;;;;;;;53.88;27.67;;;1.40;99.90;;;;;;5082766;28;20040;-70
2022/12/04 10:32:43;;;;;;;42.05;19.50;;;1.30;99.90;;;;;;5064751;28;20036;-72
2022/12/04 10:35:18;;;;;;;54.55;27.27;;;1.40;99.90;;;;;;5081808;28;20040;-71
2022/12/04 10:37:47;;;;;;;51.88;26.52;;;1.40;99.90;;;;;;5080142;28;20076;-72
2022/12/04 10:40:19;;;;;;;56.53;28.73;;;1.40;99.90;;;;;;5081773;28;20240;-70
2022/12/04 10:43:27;;;;;;;50.75;26.73;;;1.40;99.90;;;;;;5089905;28;20036;-71
2022/12/04 10:45:54;;;;;;;54.28;27.35;;;1.50;99.90;;;;;;5086062;28;20547;-69
2022/12/04 10:48:35;;;;;;;49.83;26.92;;;1.50;99.90;;;;;;5085158;28;20087;-69
2022/12/04 10:51:01;;;;;;;54.20;26.67;;;1.60;99.90;;;;;;5082297;28;20083;-69
2022/12/04 10:53:35;;;;;;;47.97;25.50;;;1.60;99.90;;;;;;5055241;28;20095;-69
2022/12/04 10:56:12;;;;;;;45.22;24.52;;;1.60;99.90;;;;;;5087897;28;20135;-69
2022/12/04 10:58:37;;;;;;;53.10;25.80;;;1.70;99.90;;;;;;5084896;28;20437;-69
2022/12/04 11:01:14;;;;;;;51.03;25.77;;;1.60;99.90;;;;;;5077374;28;20406;-69
2022/12/04 11:03:45;;;;;;;45.80;23.42;;;1.70;99.90;;;;;;5070695;28;20119;-69
2022/12/04 11:06:14;;;;;;;53.33;26.20;;;1.70;99.90;;;;;;5068044;28;20109;-68
2022/12/04 11:08:48;;;;;;;44.72;20.85;;;1.80;99.90;;;;;;5079471;28;20500;-69
2022/12/04 11:11:15;;;;;;;45.55;25.10;;;1.80;99.90;;;;;;5094273;28;20460;-68
2022/12/04 11:13:41;;;;;;;47.08;24.10;;;1.90;99.90;;;;;;5069580;28;20339;-68
2022/12/04 11:16:23;;;;;;;44.80;25.38;;;1.90;99.90;;;;;;5067424;28;20448;-69
2022/12/04 11:18:49;;;;;;;46.42;25.20;;;1.90;99.90;;;;;;5069539;28;20039;-68
2022/12/04 11:21:23;;;;;;;47.85;27.10;;;2.00;99.90;;;;;;5079090;28;20255;-68
2022/12/04 11:23:50;;;;;;;66.28;37.22;;;2.00;99.90;;;;;;5077818;28;20036;-68
2022/12/04 11:26:28;;;;;;;52.30;29.73;;;2.10;99.90;;;;;;5053688;28;20442;-68
2022/12/04 11:28:57;;;;;;;48.28;25.52;;;2.10;99.90;;;;;;5088750;28;20038;-69
2022/12/04 11:31:23;;;;;;;40.05;23.75;;;2.10;99.90;;;;;;5089470;28;20117;-68
2022/12/04 11:33:57;;;;;;;39.78;21.67;;;2.10;99.90;;;;;;5053869;28;20365;-68
2022/12/04 11:36:41;;;;;;;37.88;17.52;;;2.10;99.90;;;;;;5093226;28;20040;-69
2022/12/04 11:39:10;;;;;;;41.72;24.30;;;2.20;99.90;;;;;;5093393;28;20111;-69
2022/12/04 11:41:36;;;;;;;44.25;22.70;;;2.20;99.90;;;;;;5093246;28;20563;-69
2022/12/04 11:44:05;;;;;;;39.85;22.05;;;2.20;99.90;;;;;;5080057;28;20113;-69
2022/12/04 11:46:32;;;;;;;40.25;20.88;;;2.30;99.90;;;;;;5073197;28;20385;-68
2022/12/04 11:48:59;;;;;;;34.30;17.67;;;2.30;99.90;;;;;;5071929;28;20443;-69
2022/12/04 11:51:25;;;;;;;37.83;21.15;;;2.30;99.90;;;;;;5073709;28;20048;-70
2022/12/04 11:53:54;;;;;;;40.92;20.98;;;2.40;99.90;;;;;;5085462;28;20044;-69
2022/12/04 11:56:32;;;;;;;37.38;19.38;;;2.40;99.90;;;;;;5091737;28;20048;-69
2022/12/04 11:59:10;;;;;;;42.42;23.80;;;2.40;99.90;;;;;;5094744;28;20089;-70
2022/12/04 12:01:40;;;;;;;34.17;19.42;;;2.40;99.90;;;;;;5091810;28;20105;-69
2022/12/04 12:04:42;;;;;;;53.53;27.67;;;2.50;99.90;;;;;;5112425;28;20137;-69
2022/12/04 12:07:14;;;;;;;33.35;18.23;;;2.50;99.90;;;;;;5060859;28;20135;-69
2022/12/04 12:09:59;;;;;;;33.75;19.20;;;2.50;99.90;;;;;;5092263;28;20044;-70
2022/12/04 12:12:44;;;;;;;32.70;17.40;;;2.50;99.90;;;;;;5079299;28;20043;-69
2022/12/04 12:15:28;;;;;;;30.90;16.42;;;2.60;99.90;;;;;;5076650;28;20127;-69
2022/12/04 12:18:21;;;;;;;29.15;16.58;;;2.60;99.90;;;;;;5091531;28;20059;-69
2022/12/04 12:21:08;;;;;;;27.75;16.58;;;2.60;99.90;;;;;;5091355;28;20443;-69
2022/12/04 12:24:18;;;;;;;30.98;16.92;;;2.70;99.90;;;;;;5110528;28;20040;-70
2022/12/04 12:26:46;;;;;;;27.05;15.10;;;2.60;99.90;;;;;;5093247;28;20101;-68
2022/12/04 12:29:31;;;;;;;25.88;14.93;;;2.60;99.90;;;;;;5097136;28;20040;-68
2022/12/04 12:32:03;;;;;;;29.00;14.30;;;2.60;99.90;;;;;;5085839;28;20051;-68
2022/12/04 12:34:34;;;;;;;24.70;14.23;;;2.60;99.90;;;;;;5092827;28;20552;-68
2022/12/04 12:37:09;;;;;;;25.58;13.98;;;2.60;99.90;;;;;;5113470;28;20442;-68
2022/12/04 12:39:39;;;;;;;27.17;16.13;;;2.60;99.90;;;;;;5082500;28;20032;-69
2022/12/04 12:42:13;;;;;;;22.13;13.68;;;2.60;99.90;;;;;;5087746;28;20040;-69
2022/12/04 12:45:01;;;;;;;31.58;15.82;;;2.60;99.90;;;;;;5103450;28;20035;-69
2022/12/04 12:47:37;;;;;;;27.67;15.65;;;2.60;99.90;;;;;;5113537;28;20035;-69
2022/12/04 12:50:10;;;;;;;27.23;15.05;;;2.60;99.90;;;;;;5113573;28;20093;-69
2022/12/04 12:52:51;;;;;;;28.88;17.15;;;2.60;99.90;;;;;;5095252;28;20357;-69
2022/12/04 12:55:21;;;;;;;;;;;2.60;99.90;;;;;;5095374;28;20054;-70
2022/12/04 12:58:02;;;;;;;27.98;16.02;;;2.60;99.90;;;;;;5112847;28;19915;-69
2022/12/04 13:00:35;;;;;;;28.67;16.02;;;2.60;99.90;;;;;;5113362;28;20037;-70
2022/12/04 13:03:12;;;;;;;29.77;17.73;;;2.60;99.90;;;;;;5060880;28;20040;-68
2022/12/04 13:05:43;;;;;;;29.25;16.15;;;2.60;99.90;;;;;;5083305;28;20047;-70
2022/12/04 13:08:14;;;;;;;;;;;2.60;99.90;;;;;;5058494;28;20040;-70
2022/12/04 13:11:04;;;;;;;29.90;15.68;;;2.60;99.90;;;;;;5091689;28;19938;-70